Time;durP1;ratioP1;P1;durP2;ratioP2;P2;SDS_P1;SDS_P2;PMS_P1;PMS_P2;Temp;Humidity;BMP_temperature;BMP_pressure;BME280_temperature;BME280_humidity;BME280_pressure;Samples;Min_cycle;Max_cycle;Signal;HPM_P1;HPM_P2
2022/05/06 00:01:04;;;;;;;5.80;4.00;;;;;;;;;;5074973;28;20456;-74
2022/05/06 00:03:32;;;;;;;4.10;3.50;;;;;;;;;;5074841;28;20452;-74
2022/05/06 00:05:59;;;;;;;5.27;4.77;;;;;;;;;;5074843;28;20448;-74
2022/05/06 00:08:26;;;;;;;4.13;3.63;;;;;;;;;;5074763;28;20456;-74
2022/05/06 00:10:54;;;;;;;4.57;4.13;;;;;;;;;;5074666;28;20494;-74
2022/05/06 00:13:21;;;;;;;4.20;3.80;;;;;;;;;;5074391;28;20451;-74
2022/05/06 00:15:48;;;;;;;4.30;3.57;;;;;;;;;;5074451;28;20484;-74
2022/05/06 00:18:15;;;;;;;3.87;3.57;;;;;;;;;;5074583;28;20463;-74
2022/05/06 00:20:44;;;;;;;4.23;3.83;;;;;;;;;;5074485;28;20475;-74
2022/05/06 00:23:11;;;;;;;4.63;3.80;;;;;;;;;;5074026;28;20578;-74
2022/05/06 00:25:38;;;;;;;4.27;3.87;;;;;;;;;;5074040;28;20467;-74
2022/05/06 00:28:05;;;;;;;4.73;4.33;;;;;;;;;;5074042;28;20455;-74
2022/05/06 00:30:32;;;;;;;4.30;3.87;;;;;;;;;;5074258;28;20472;-74
2022/05/06 00:33:00;;;;;;;5.20;4.20;;;;;;;;;;5073894;28;20543;-73
2022/05/06 00:35:27;;;;;;;6.60;4.43;;;;;;;;;;5074097;28;20803;-74
2022/05/06 00:37:56;;;;;;;3.90;3.60;;;;;;;;;;5074169;28;20459;-74
2022/05/06 00:40:23;;;;;;;4.07;3.67;;;;;;;;;;5074022;28;20817;-71
2022/05/06 00:42:51;;;;;;;4.40;4.00;;;;;;;;;;5074123;28;20460;-71
2022/05/06 00:45:18;;;;;;;3.63;3.33;;;;;;;;;;5074058;28;20602;-71
2022/05/06 00:47:46;;;;;;;5.77;4.53;;;;;;;;;;5074033;28;20462;-71
2022/05/06 00:50:14;;;;;;;7.10;6.40;;;;;;;;;;5073924;28;20559;-71
2022/05/06 00:52:41;;;;;;;10.00;7.43;;;;;;;;;;5073875;28;20459;-71
2022/05/06 00:55:10;;;;;;;8.90;6.63;;;;;;;;;;5073455;28;20462;-71
2022/05/06 00:57:37;;;;;;;7.20;6.50;;;;;;;;;;5073645;28;20479;-71
2022/05/06 01:00:20;;;;;;;7.30;5.83;;;;;;;;;;5072731;28;20523;-71
2022/05/06 01:02:47;;;;;;;6.10;5.50;;;;;;;;;;5073688;28;20944;-71
2022/05/06 01:05:15;;;;;;;7.63;6.93;;;;;;;;;;5073978;28;20565;-71
2022/05/06 01:07:43;;;;;;;8.50;6.60;;;;;;;;;;5073779;28;20816;-71
2022/05/06 01:10:12;;;;;;;6.87;6.17;;;;;;;;;;5073595;28;20478;-71
2022/05/06 01:12:39;;;;;;;5.87;5.37;;;;;;;;;;5073702;28;20795;-71
2022/05/06 01:15:18;;;;;;;6.00;5.40;;;;;;;;;;5073285;28;20455;-71
2022/05/06 01:17:46;;;;;;;5.80;4.97;;;;;;;;;;5073551;28;20471;-71
2022/05/06 01:20:15;;;;;;;6.23;5.70;;;;;;;;;;5073477;28;20484;-71
2022/05/06 01:22:44;;;;;;;5.40;4.90;;;;;;;;;;5073009;28;20554;-70
2022/05/06 01:25:11;;;;;;;5.90;4.70;;;;;;;;;;5073514;28;20448;-70
2022/05/06 01:27:40;;;;;;;6.03;5.30;;;;;;;;;;5073472;28;20447;-70
2022/05/06 01:30:08;;;;;;;7.40;5.03;;;;;;;;;;5073336;28;21040;-71
2022/05/06 01:32:36;;;;;;;6.50;5.90;;;;;;;;;;5073449;28;20451;-70
2022/05/06 01:35:04;;;;;;;6.13;5.53;;;;;;;;;;5073307;28;20821;-70
2022/05/06 01:37:32;;;;;;;6.50;5.27;;;;;;;;;;5073004;28;20498;-70
2022/05/06 01:40:04;;;;;;;5.83;5.17;;;;;;;;;;5073054;28;20479;-70
2022/05/06 01:42:33;;;;;;;5.17;4.70;;;;;;;;;;5073038;28;20508;-70
2022/05/06 01:45:01;;;;;;;5.77;4.80;;;;;;;;;;5073282;28;20491;-70
2022/05/06 01:47:29;;;;;;;5.90;5.40;;;;;;;;;;5073290;28;20513;-70
2022/05/06 01:49:57;;;;;;;5.73;5.10;;;;;;;;;;5073184;28;20498;-70
2022/05/06 01:52:26;;;;;;;5.87;5.27;;;;;;;;;;5072914;28;20455;-70
2022/05/06 01:54:53;;;;;;;4.73;4.33;;;;;;;;;;5072899;28;20455;-70
2022/05/06 01:57:21;;;;;;;6.10;5.50;;;;;;;;;;5073148;28;20490;-70
2022/05/06 01:59:48;;;;;;;6.63;6.00;;;;;;;;;;5072791;28;20486;-70
2022/05/06 02:02:15;;;;;;;6.70;5.90;;;;;;;;;;5073090;28;20966;-70
2022/05/06 02:07:27;;;;;;;7.03;5.80;;;;;;;;;;5073040;28;20915;-70
2022/05/06 02:09:54;;;;;;;7.53;5.50;;;;;;;;;;5073003;28;20478;-70
2022/05/06 02:12:22;;;;;;;8.07;6.30;;;;;;;;;;5075702;28;20452;-70
2022/05/06 02:14:49;;;;;;;7.33;6.23;;;;;;;;;;5076606;28;20458;-70
2022/05/06 02:17:17;;;;;;;9.50;5.90;;;;;;;;;;5076519;28;20486;-71
2022/05/06 02:19:44;;;;;;;9.50;8.40;;;;;;;;;;5076858;28;20995;-70
2022/05/06 02:22:11;;;;;;;8.20;7.33;;;;;;;;;;5076810;28;20936;-70
2022/05/06 02:24:38;;;;;;;8.57;6.80;;;;;;;;;;5076466;28;20889;-70
2022/05/06 02:27:05;;;;;;;7.93;6.50;;;;;;;;;;5076647;28;20455;-70
2022/05/06 02:29:34;;;;;;;7.10;6.40;;;;;;;;;;5076334;28;20479;-70
2022/05/06 02:34:47;;;;;;;7.83;6.70;;;;;;;;;;5076418;28;20514;-70
2022/05/06 02:37:14;;;;;;;7.70;6.20;;;;;;;;;;5076369;28;20483;-70
2022/05/06 02:39:41;;;;;;;8.23;7.07;;;;;;;;;;5076406;28;21085;-70
2022/05/06 02:42:09;;;;;;;8.50;7.40;;;;;;;;;;5076409;28;20828;-71
2022/05/06 02:44:37;;;;;;;9.23;7.60;;;;;;;;;;5076396;28;20864;-70
2022/05/06 02:47:05;;;;;;;7.90;6.57;;;;;;;;;;5076264;28;20452;-70
2022/05/06 02:49:32;;;;;;;8.80;7.53;;;;;;;;;;5076119;28;20475;-70
2022/05/06 02:51:59;;;;;;;6.83;6.20;;;;;;;;;;5076227;28;20448;-70
2022/05/06 02:54:26;;;;;;;10.27;7.60;;;;;;;;;;5075902;28;20456;-70
2022/05/06 02:56:54;;;;;;;8.33;7.23;;;;;;;;;;5076159;28;20844;-70
2022/05/06 02:59:22;;;;;;;7.43;6.30;;;;;;;;;;5076098;28;20571;-70
2022/05/06 03:01:50;;;;;;;7.20;6.50;;;;;;;;;;5076358;28;20525;-70
2022/05/06 03:04:17;;;;;;;8.83;7.33;;;;;;;;;;5075778;28;20459;-70
2022/05/06 03:06:44;;;;;;;12.30;7.70;;;;;;;;;;5076028;28;20436;-70
2022/05/06 03:09:12;;;;;;;10.13;8.50;;;;;;;;;;5075622;28;20474;-70
2022/05/06 03:11:39;;;;;;;7.67;6.87;;;;;;;;;;5075927;28;20550;-70
2022/05/06 03:14:06;;;;;;;8.57;6.90;;;;;;;;;;5075874;28;20455;-70
2022/05/06 03:16:33;;;;;;;10.07;7.90;;;;;;;;;;5075809;28;21015;-70
2022/05/06 03:19:01;;;;;;;8.57;7.70;;;;;;;;;;5075714;28;20476;-70
2022/05/06 03:21:28;;;;;;;10.33;8.23;;;;;;;;;;5075652;28;20455;-70
2022/05/06 03:23:56;;;;;;;8.90;7.50;;;;;;;;;;5074311;28;20471;-70
2022/05/06 03:26:23;;;;;;;8.70;7.90;;;;;;;;;;5075644;28;20816;-70
2022/05/06 03:28:52;;;;;;;7.60;6.90;;;;;;;;;;5075515;28;20464;-70
2022/05/06 03:31:19;;;;;;;8.40;7.53;;;;;;;;;;5075240;28;20452;-70
2022/05/06 03:33:47;;;;;;;8.50;7.70;;;;;;;;;;5075490;28;20820;-70
2022/05/06 03:36:15;;;;;;;8.47;7.30;;;;;;;;;;5075104;28;20452;-71
2022/05/06 03:38:43;;;;;;;7.67;6.97;;;;;;;;;;5075080;28;20513;-70
2022/05/06 03:41:10;;;;;;;8.20;7.40;;;;;;;;;;5075416;28;20940;-70
2022/05/06 03:43:37;;;;;;;8.63;7.70;;;;;;;;;;5075380;28;20928;-70
2022/05/06 03:46:04;;;;;;;25.80;16.93;;;;;;;;;;5075280;28;20960;-70
2022/05/06 03:48:32;;;;;;;8.97;8.10;;;;;;;;;;5075209;28;20796;-70
2022/05/06 03:53:45;;;;;;;10.17;9.13;;;;;;;;;;5074947;28;20411;-70
2022/05/06 03:56:12;;;;;;;9.50;8.47;;;;;;;;;;5075110;28;20448;-70
2022/05/06 03:58:39;;;;;;;9.23;8.43;;;;;;;;;;5074958;28;20472;-70
2022/05/06 04:01:07;;;;;;;10.40;8.97;;;;;;;;;;5074587;28;20452;-70
2022/05/06 04:03:34;;;;;;;10.73;8.87;;;;;;;;;;5074589;28;20451;-70
2022/05/06 04:06:01;;;;;;;10.07;9.07;;;;;;;;;;5074905;28;20911;-70
2022/05/06 04:08:28;;;;;;;9.20;8.20;;;;;;;;;;5074593;28;20448;-70
2022/05/06 04:10:57;;;;;;;8.97;8.03;;;;;;;;;;5074377;28;20471;-70
2022/05/06 04:13:24;;;;;;;10.10;9.03;;;;;;;;;;5074416;28;20494;-70
2022/05/06 04:15:51;;;;;;;10.20;9.10;;;;;;;;;;5074691;28;20463;-70
2022/05/06 04:18:18;;;;;;;13.07;8.80;;;;;;;;;;5074212;28;20483;-70
2022/05/06 04:23:31;;;;;;;9.23;8.33;;;;;;;;;;5074190;28;20451;-70
2022/05/06 04:26:00;;;;;;;9.40;8.50;;;;;;;;;;5073946;28;20455;-70
2022/05/06 04:28:27;;;;;;;11.70;9.93;;;;;;;;;;5074375;28;20456;-70
2022/05/06 04:30:54;;;;;;;11.23;9.23;;;;;;;;;;5074166;28;20494;-70
2022/05/06 04:33:22;;;;;;;9.50;8.50;;;;;;;;;;5074350;28;20952;-70
2022/05/06 04:35:49;;;;;;;11.83;9.83;;;;;;;;;;5073968;28;20455;-70
2022/05/06 04:38:16;;;;;;;10.90;9.80;;;;;;;;;;5074089;28;20483;-70
2022/05/06 04:40:43;;;;;;;10.63;9.23;;;;;;;;;;5074034;28;20814;-70
2022/05/06 04:43:12;;;;;;;12.37;10.50;;;;;;;;;;5074135;28;20463;-70
2022/05/06 04:45:40;;;;;;;12.17;10.10;;;;;;;;;;5074115;28;20823;-70
2022/05/06 04:48:07;;;;;;;11.33;10.13;;;;;;;;;;5073776;28;20447;-70
2022/05/06 04:50:34;;;;;;;15.60;10.17;;;;;;;;;;5074139;28;20480;-70
2022/05/06 04:53:02;;;;;;;15.43;9.83;;;;;;;;;;5073877;28;20448;-70
2022/05/06 04:55:29;;;;;;;12.70;10.90;;;;;;;;;;5073581;28;21058;-70
2022/05/06 04:57:56;;;;;;;11.50;10.10;;;;;;;;;;5076645;28;20825;-70
2022/05/06 05:00:24;;;;;;;12.87;10.67;;;;;;;;;;5093462;28;20482;-70
2022/05/06 05:02:51;;;;;;;11.53;10.33;;;;;;;;;;5093993;28;20439;-70
2022/05/06 05:05:19;;;;;;;11.30;9.90;;;;;;;;;;5091666;28;20442;-70
2022/05/06 05:07:46;;;;;;;11.07;9.80;;;;;;;;;;5092449;28;20814;-70
2022/05/06 05:10:13;;;;;;;12.33;11.00;;;;;;;;;;5092599;28;20470;-70
2022/05/06 05:12:41;;;;;;;11.77;10.67;;;;;;;;;;5092264;28;20466;-70
2022/05/06 05:15:08;;;;;;;13.47;11.83;;;;;;;;;;5092518;28;20442;-70
2022/05/06 05:17:37;;;;;;;11.30;10.10;;;;;;;;;;5092035;28;20482;-70
2022/05/06 05:20:04;;;;;;;11.27;10.13;;;;;;;;;;5091985;28;20475;-71
2022/05/06 05:22:31;;;;;;;11.07;9.63;;;;;;;;;;5092524;28;20453;-70
2022/05/06 05:24:59;;;;;;;13.43;11.10;;;;;;;;;;5092139;28;20508;-70
2022/05/06 05:27:26;;;;;;;12.27;10.47;;;;;;;;;;5092341;28;20901;-70
2022/05/06 05:29:53;;;;;;;14.60;11.43;;;;;;;;;;5092220;28;20845;-70
2022/05/06 05:32:21;;;;;;;14.47;11.57;;;;;;;;;;5092121;28;20455;-70
2022/05/06 05:34:49;;;;;;;12.80;10.73;;;;;;;;;;5092143;28;20454;-71
2022/05/06 05:37:17;;;;;;;15.10;11.60;;;;;;;;;;5091908;28;20487;-70
2022/05/06 05:39:45;;;;;;;14.27;11.13;;;;;;;;;;5092170;28;20521;-69
2022/05/06 05:42:13;;;;;;;11.63;10.43;;;;;;;;;;5091675;28;20546;-70
2022/05/06 05:50:08;;;;;;;14.83;12.37;;;;;;;;;;5064413;28;20458;-70
2022/05/06 05:52:35;;;;;;;14.67;10.23;;;;;;;;;;5098771;28;20924;-70
2022/05/06 05:55:02;;;;;;;12.03;9.87;;;;;;;;;;5098750;28;20442;-70
2022/05/06 05:57:29;;;;;;;15.90;12.13;;;;;;;;;;5098914;28;20490;-70
2022/05/06 05:59:56;;;;;;;14.20;11.10;;;;;;;;;;5098443;28;20470;-71
2022/05/06 06:02:23;;;;;;;15.43;11.77;;;;;;;;;;5098850;28;20956;-70
2022/05/06 06:04:51;;;;;;;11.63;10.43;;;;;;;;;;5098489;28;20458;-70
2022/05/06 06:07:19;;;;;;;16.27;12.70;;;;;;;;;;5098403;28;20450;-71
2022/05/06 06:09:46;;;;;;;12.37;11.03;;;;;;;;;;5098992;28;20470;-70
2022/05/06 06:12:13;;;;;;;14.70;11.67;;;;;;;;;;5098826;28;20950;-70
2022/05/06 06:14:40;;;;;;;12.80;10.80;;;;;;;;;;5098415;28;20951;-71
2022/05/06 06:17:08;;;;;;;13.90;10.40;;;;;;;;;;5098545;28;20446;-71
2022/05/06 06:19:35;;;;;;;11.30;10.20;;;;;;;;;;5098317;28;20493;-71
2022/05/06 06:22:02;;;;;;;13.77;11.10;;;;;;;;;;5098676;28;20954;-70
2022/05/06 06:24:31;;;;;;;11.80;10.60;;;;;;;;;;5098318;28;20617;-70
2022/05/06 06:26:58;;;;;;;11.07;9.90;;;;;;;;;;5098255;28;20454;-70
2022/05/06 06:29:26;;;;;;;12.07;10.87;;;;;;;;;;5098177;28;20467;-70
2022/05/06 06:31:53;;;;;;;12.37;10.30;;;;;;;;;;5098211;28;21021;-70
2022/05/06 06:34:20;;;;;;;12.87;11.53;;;;;;;;;;5098565;28;20454;-70
2022/05/06 06:36:48;;;;;;;14.10;11.07;;;;;;;;;;5098356;28;20456;-70
2022/05/06 06:39:15;;;;;;;14.50;10.73;;;;;;;;;;5097995;28;20490;-70
2022/05/06 06:41:43;;;;;;;14.20;11.70;;;;;;;;;;5098310;28;20447;-70
2022/05/06 06:44:10;;;;;;;12.97;10.90;;;;;;;;;;5098228;28;20493;-70
2022/05/06 06:46:38;;;;;;;13.97;11.03;;;;;;;;;;5098508;28;20469;-70
2022/05/06 06:49:05;;;;;;;13.20;11.17;;;;;;;;;;5097914;28;20466;-70
2022/05/06 06:51:33;;;;;;;13.30;11.90;;;;;;;;;;5097920;28;20454;-70
2022/05/06 06:54:00;;;;;;;13.17;11.77;;;;;;;;;;5098250;28;20876;-71
2022/05/06 06:56:27;;;;;;;14.03;11.60;;;;;;;;;;5098314;28;20446;-71
2022/05/06 06:58:55;;;;;;;11.40;10.20;;;;;;;;;;5094215;28;21264;-71
2022/05/06 07:01:23;;;;;;;18.47;12.97;;;;;;;;;;5095168;28;20936;-70
2022/05/06 07:03:50;;;;;;;12.97;10.90;;;;;;;;;;5081438;28;20840;-70
2022/05/06 07:11:56;;;;;;;14.60;9.87;;;;;;;;;;5053153;28;21021;-71
2022/05/06 07:14:25;;;;;;;11.83;10.30;;;;;;;;;;5074690;28;20436;-71
2022/05/06 07:16:52;;;;;;;12.90;10.60;;;;;;;;;;5074160;28;20513;-70
2022/05/06 07:19:20;;;;;;;13.07;10.63;;;;;;;;;;5074121;28;20492;-71
2022/05/06 07:21:49;;;;;;;10.87;9.77;;;;;;;;;;5074375;28;20538;-71
2022/05/06 07:24:16;;;;;;;13.50;11.00;;;;;;;;;;5074199;28;20990;-71
2022/05/06 07:26:44;;;;;;;13.90;12.57;;;;;;;;;;5074536;28;20451;-71
2022/05/06 07:29:11;;;;;;;13.90;11.30;;;;;;;;;;5074210;28;20832;-71
2022/05/06 07:31:40;;;;;;;16.10;12.27;;;;;;;;;;5074382;28;20455;-71
2022/05/06 07:34:08;;;;;;;12.50;11.13;;;;;;;;;;5074132;28;20455;-70
2022/05/06 07:36:35;;;;;;;14.60;11.27;;;;;;;;;;5074206;28;20940;-71
2022/05/06 07:39:02;;;;;;;12.00;10.50;;;;;;;;;;5073365;28;20498;-71
2022/05/06 07:41:29;;;;;;;11.83;10.50;;;;;;;;;;5073851;28;20451;-71
2022/05/06 07:43:56;;;;;;;13.40;11.90;;;;;;;;;;5073769;28;20524;-71
2022/05/06 07:46:25;;;;;;;13.73;10.13;;;;;;;;;;5073837;28;20452;-71
2022/05/06 07:48:53;;;;;;;14.30;11.53;;;;;;;;;;5073957;28;20997;-71
2022/05/06 07:51:20;;;;;;;12.40;11.10;;;;;;;;;;5073624;28;20459;-71
2022/05/06 07:53:48;;;;;;;11.57;10.47;;;;;;;;;;5073849;28;20451;-71
2022/05/06 07:56:15;;;;;;;12.73;11.40;;;;;;;;;;5073531;28;20463;-71
2022/05/06 07:58:42;;;;;;;13.17;11.30;;;;;;;;;;5073601;28;20983;-71
2022/05/06 08:01:11;;;;;;;11.30;10.10;;;;;;;;;;5073761;28;20808;-71
2022/05/06 08:06:24;;;;;;;12.40;10.63;;;;;;;;;;5073314;28;20423;-71
2022/05/06 08:08:51;;;;;;;13.27;11.47;;;;;;;;;;5073402;28;20451;-70
2022/05/06 08:11:19;;;;;;;13.97;10.50;;;;;;;;;;5074504;28;20447;-70
2022/05/06 08:13:47;;;;;;;11.90;10.50;;;;;;;;;;5074258;28;20455;-70
2022/05/06 08:16:14;;;;;;;14.83;12.13;;;;;;;;;;5074715;28;20869;-70
2022/05/06 08:18:41;;;;;;;13.17;11.33;;;;;;;;;;5074497;28;20506;-70
2022/05/06 08:21:09;;;;;;;14.30;11.97;;;;;;;;;;5074523;28;20860;-70
2022/05/06 08:23:37;;;;;;;13.80;10.83;;;;;;;;;;5074006;28;20459;-71
2022/05/06 08:26:05;;;;;;;13.30;12.00;;;;;;;;;;5074154;28;20448;-71
2022/05/06 08:28:32;;;;;;;11.80;10.60;;;;;;;;;;5074308;28;20960;-70
2022/05/06 08:30:59;;;;;;;11.20;10.00;;;;;;;;;;5074490;28;20874;-70
2022/05/06 08:33:26;;;;;;;12.87;11.30;;;;;;;;;;5074393;28;20452;-70
2022/05/06 08:35:54;;;;;;;12.00;10.50;;;;;;;;;;5074294;28;20860;-71
2022/05/06 08:38:21;;;;;;;16.40;11.83;;;;;;;;;;5074311;28;20493;-70
2022/05/06 08:40:51;;;;;;;12.47;11.00;;;;;;;;;;5074287;28;20998;-70
2022/05/06 08:43:18;;;;;;;13.70;10.53;;;;;;;;;;5074363;28;20448;-70
2022/05/06 08:51:16;;;;;;;15.30;11.40;;;;;;;;;;5074080;28;21038;-70
2022/05/06 08:53:43;;;;;;;13.03;11.60;;;;;;;;;;5074185;28;20455;-71
2022/05/06 08:56:12;;;;;;;12.00;10.57;;;;;;;;;;5073783;28;20456;-71
2022/05/06 08:58:41;;;;;;;13.53;11.17;;;;;;;;;;5073839;28;21085;-71
2022/05/06 09:01:09;;;;;;;13.80;11.30;;;;;;;;;;5073996;28;20502;-71
2022/05/06 09:03:39;;;;;;;14.43;9.50;;;;;;;;;;5073761;28;20948;-71
2022/05/06 09:06:06;;;;;;;13.90;10.17;;;;;;;;;;5073608;28;20896;-70
2022/05/06 09:08:37;;;;;;;11.33;10.07;;;;;;;;;;5074001;28;20459;-71
2022/05/06 09:11:07;;;;;;;11.90;10.03;;;;;;;;;;5073639;28;20466;-71
2022/05/06 09:13:36;;;;;;;11.37;9.73;;;;;;;;;;5073640;28;20451;-70
2022/05/06 09:19:10;;;;;;;11.00;9.67;;;;;;;;;;5073361;28;20870;-70
2022/05/06 09:21:38;;;;;;;11.90;10.60;;;;;;;;;;5072603;28;20819;-70
2022/05/06 09:24:17;;;;;;;11.43;10.00;;;;;;;;;;5073187;28;20463;-70
2022/05/06 09:26:56;;;;;;;10.67;9.57;;;;;;;;;;5073605;28;20975;-71
2022/05/06 09:29:29;;;;;;;13.33;10.47;;;;;;;;;;5073204;28;20529;-71
2022/05/06 09:31:57;;;;;;;10.73;9.73;;;;;;;;;;5073131;28;20451;-71
2022/05/06 09:34:28;;;;;;;11.80;10.50;;;;;;;;;;5073298;28;20444;-71
2022/05/06 09:36:56;;;;;;;13.70;12.30;;;;;;;;;;5073224;28;20501;-71
2022/05/06 09:39:23;;;;;;;11.90;10.60;;;;;;;;;;5072938;28;20495;-70
2022/05/06 09:41:51;;;;;;;10.53;9.60;;;;;;;;;;5073432;28;20481;-71
2022/05/06 09:44:23;;;;;;;12.00;10.80;;;;;;;;;;5073270;28;20451;-71
2022/05/06 09:47:08;;;;;;;15.67;12.10;;;;;;;;;;5073161;28;20534;-70
2022/05/06 09:49:39;;;;;;;13.70;11.00;;;;;;;;;;5073309;28;20503;-70
2022/05/06 09:52:09;;;;;;;11.97;10.13;;;;;;;;;;5072919;28;20440;-70
2022/05/06 09:54:37;;;;;;;11.53;10.30;;;;;;;;;;5072967;28;20451;-70
2022/05/06 09:57:04;;;;;;;12.60;11.30;;;;;;;;;;5072901;28;20451;-70
2022/05/06 09:59:32;;;;;;;11.50;10.33;;;;;;;;;;5072990;28;20495;-70
2022/05/06 10:02:01;;;;;;;13.03;11.30;;;;;;;;;;5073150;28;20463;-70
2022/05/06 10:04:29;;;;;;;15.80;11.77;;;;;;;;;;5073150;28;20455;-70
2022/05/06 10:06:59;;;;;;;15.23;13.13;;;;;;;;;;5072871;28;20459;-70
2022/05/06 10:09:27;;;;;;;11.57;10.37;;;;;;;;;;5073055;28;20884;-70
2022/05/06 10:11:55;;;;;;;14.60;12.57;;;;;;;;;;5072784;28;20443;-70
2022/05/06 10:14:22;;;;;;;12.53;11.23;;;;;;;;;;5072976;28;20501;-71
2022/05/06 10:16:49;;;;;;;12.80;11.50;;;;;;;;;;5073076;28;20455;-71
2022/05/06 10:19:27;;;;;;;12.83;11.53;;;;;;;;;;5072871;28;20525;-71
2022/05/06 10:21:56;;;;;;;17.20;13.53;;;;;;;;;;5072978;28;20965;-70
2022/05/06 10:24:23;;;;;;;13.70;11.47;;;;;;;;;;5072485;28;20517;-71
2022/05/06 10:26:51;;;;;;;15.13;11.77;;;;;;;;;;5072861;28;20837;-70
2022/05/06 10:32:37;;;;;;;13.37;12.07;;;;;;;;;;5073810;28;20473;-70
2022/05/06 10:35:11;;;;;;;16.37;12.90;;;;;;;;;;5076140;28;20462;-70
2022/05/06 10:37:39;;;;;;;14.57;11.93;;;;;;;;;;5076585;28;20798;-70
2022/05/06 10:40:25;;;;;;;13.03;11.47;;;;;;;;;;5076106;28;20544;-71
2022/05/06 10:42:52;;;;;;;14.20;12.70;;;;;;;;;;5076182;28;20455;-70
2022/05/06 10:45:23;;;;;;;13.40;12.00;;;;;;;;;;5076221;28;20810;-71
2022/05/06 10:47:51;;;;;;;13.27;11.87;;;;;;;;;;5076401;28;20447;-70
2022/05/06 10:50:21;;;;;;;14.87;13.20;;;;;;;;;;5075966;28;20471;-70
2022/05/06 10:52:49;;;;;;;17.53;13.80;;;;;;;;;;5076381;28;20472;-70
2022/05/06 10:55:18;;;;;;;17.20;13.47;;;;;;;;;;5076188;28;20456;-70
2022/05/06 10:57:49;;;;;;;14.63;13.20;;;;;;;;;;5075872;28;20459;-71
2022/05/06 11:00:17;;;;;;;13.03;11.53;;;;;;;;;;5075715;28;20544;-71
2022/05/06 11:02:44;;;;;;;15.53;12.67;;;;;;;;;;5075883;28;20444;-71
2022/05/06 11:05:14;;;;;;;16.10;13.00;;;;;;;;;;5075689;28;20574;-71
2022/05/06 11:07:43;;;;;;;14.17;12.70;;;;;;;;;;5075745;28;20452;-70
2022/05/06 11:10:11;;;;;;;14.40;13.00;;;;;;;;;;5075618;28;20467;-71
2022/05/06 11:12:39;;;;;;;16.90;13.50;;;;;;;;;;5075846;28;20977;-70
2022/05/06 11:15:07;;;;;;;14.03;12.63;;;;;;;;;;5075386;28;20516;-70
2022/05/06 11:17:34;;;;;;;15.67;13.87;;;;;;;;;;5075892;28;20486;-70
2022/05/06 11:20:01;;;;;;;15.00;12.97;;;;;;;;;;5075321;28;20492;-71
2022/05/06 11:22:33;;;;;;;16.83;13.47;;;;;;;;;;5075472;28;20945;-71
2022/05/06 11:25:01;;;;;;;15.47;13.87;;;;;;;;;;5075104;28;20463;-71
2022/05/06 11:27:29;;;;;;;14.10;12.20;;;;;;;;;;5075307;28;20451;-71
2022/05/06 11:29:56;;;;;;;15.47;12.77;;;;;;;;;;5075624;28;20507;-71
2022/05/06 11:32:23;;;;;;;13.17;11.90;;;;;;;;;;5075265;28;20464;-71
2022/05/06 11:34:55;;;;;;;14.57;12.43;;;;;;;;;;5075118;28;20452;-71
2022/05/06 11:37:22;;;;;;;16.40;13.60;;;;;;;;;;5075394;28;20476;-70
2022/05/06 11:39:50;;;;;;;14.93;12.50;;;;;;;;;;5075039;28;20530;-70
2022/05/06 11:42:22;;;;;;;16.97;13.87;;;;;;;;;;5075176;28;20451;-70
2022/05/06 11:47:44;;;;;;;15.07;13.47;;;;;;;;;;5084041;28;20438;-70
2022/05/06 11:50:11;;;;;;;15.20;13.60;;;;;;;;;;5094174;28;20979;-70
2022/05/06 11:52:38;;;;;;;13.47;12.17;;;;;;;;;;5094248;28;20932;-70
2022/05/06 11:55:07;;;;;;;14.13;12.80;;;;;;;;;;5094049;28;20817;-70
2022/05/06 11:57:37;;;;;;;14.40;12.90;;;;;;;;;;5094088;28;20450;-70
2022/05/06 12:00:05;;;;;;;14.27;12.83;;;;;;;;;;5093984;28;20494;-71
2022/05/06 12:02:32;;;;;;;14.67;12.90;;;;;;;;;;5093883;28;20947;-71
2022/05/06 12:04:59;;;;;;;13.60;12.07;;;;;;;;;;5093873;28;20794;-70
2022/05/06 12:07:41;;;;;;;14.43;13.07;;;;;;;;;;5093987;28;20459;-70
2022/05/06 12:10:09;;;;;;;17.33;13.40;;;;;;;;;;5093465;28;20820;-70
2022/05/06 12:12:52;;;;;;;14.13;12.33;;;;;;;;;;5093699;28;20451;-71
2022/05/06 12:15:20;;;;;;;13.10;11.80;;;;;;;;;;5093794;28;20475;-70
2022/05/06 12:17:47;;;;;;;13.53;12.23;;;;;;;;;;5093420;28;20507;-71
2022/05/06 12:20:29;;;;;;;13.70;12.00;;;;;;;;;;5093636;28;20567;-71
2022/05/06 12:22:58;;;;;;;15.00;12.27;;;;;;;;;;5090983;28;20834;-71
2022/05/06 12:25:25;;;;;;;14.23;12.63;;;;;;;;;;5093576;28;20461;-71
2022/05/06 12:28:05;;;;;;;14.37;12.87;;;;;;;;;;5093087;28;20549;-71
2022/05/06 12:30:33;;;;;;;12.67;11.40;;;;;;;;;;5093410;28;20458;-71
2022/05/06 12:33:04;;;;;;;13.33;11.93;;;;;;;;;;5093443;28;20459;-71
2022/05/06 12:35:31;;;;;;;13.30;11.80;;;;;;;;;;5093325;28;20465;-71
2022/05/06 12:37:59;;;;;;;16.07;12.47;;;;;;;;;;5093200;28;20446;-71
2022/05/06 12:40:30;;;;;;;12.30;11.10;;;;;;;;;;5093144;28;20487;-71
2022/05/06 12:43:05;;;;;;;12.17;10.97;;;;;;;;;;5092825;28;20903;-71
2022/05/06 12:45:32;;;;;;;12.23;11.07;;;;;;;;;;5093111;28;20466;-71
2022/05/06 12:50:44;;;;;;;18.07;12.07;;;;;;;;;;5092497;28;20446;-71
2022/05/06 12:53:11;;;;;;;11.07;9.97;;;;;;;;;;5092944;28;20935;-72
2022/05/06 12:55:38;;;;;;;10.87;9.83;;;;;;;;;;5091928;28;20870;-71
2022/05/06 12:58:07;;;;;;;12.60;11.23;;;;;;;;;;5092896;28;20462;-71
2022/05/06 13:00:37;;;;;;;12.20;10.90;;;;;;;;;;5092648;28;20944;-71
2022/05/06 13:03:04;;;;;;;17.43;10.93;;;;;;;;;;5092484;28;20455;-71
2022/05/06 13:05:31;;;;;;;13.23;11.77;;;;;;;;;;5092464;28;20487;-71
2022/05/06 13:07:58;;;;;;;12.40;11.20;;;;;;;;;;5092769;28;20447;-71
2022/05/06 13:10:25;;;;;;;11.20;10.00;;;;;;;;;;5092520;28;20474;-71
2022/05/06 13:12:52;;;;;;;13.33;11.17;;;;;;;;;;5094018;28;20814;-71
2022/05/06 13:15:20;;;;;;;13.00;11.53;;;;;;;;;;5093649;28;20810;-71
2022/05/06 13:17:48;;;;;;;15.57;11.77;;;;;;;;;;5093657;28;20451;-70
2022/05/06 13:20:15;;;;;;;14.77;13.20;;;;;;;;;;5093445;28;20493;-70
2022/05/06 13:22:42;;;;;;;13.30;11.90;;;;;;;;;;5093287;28;20446;-70
2022/05/06 13:25:09;;;;;;;14.50;12.30;;;;;;;;;;5093991;28;20431;-70
2022/05/06 13:27:36;;;;;;;14.23;12.17;;;;;;;;;;5093619;28;20454;-70
2022/05/06 13:30:04;;;;;;;13.93;12.60;;;;;;;;;;5093535;28;20467;-71
2022/05/06 13:32:32;;;;;;;14.97;11.50;;;;;;;;;;5093685;28;20822;-70
2022/05/06 13:34:59;;;;;;;15.20;11.47;;;;;;;;;;5093244;28;20453;-70
2022/05/06 13:37:26;;;;;;;13.77;12.47;;;;;;;;;;5093213;28;20455;-70
2022/05/06 13:39:54;;;;;;;12.47;11.10;;;;;;;;;;5093451;28;21009;-70
2022/05/06 13:42:21;;;;;;;12.13;10.93;;;;;;;;;;5093514;28;21018;-71
2022/05/06 13:44:48;;;;;;;13.00;11.60;;;;;;;;;;5093126;28;20478;-71
2022/05/06 13:47:15;;;;;;;14.70;12.00;;;;;;;;;;5093483;28;20457;-70
2022/05/06 13:49:44;;;;;;;14.27;12.27;;;;;;;;;;5093233;28;20496;-70
2022/05/06 13:52:13;;;;;;;12.47;11.20;;;;;;;;;;5093427;28;20503;-70
2022/05/06 13:54:41;;;;;;;14.93;11.80;;;;;;;;;;5093304;28;20458;-71
2022/05/06 13:59:52;;;;;;;13.87;12.17;;;;;;;;;;5093065;28;20548;-70
2022/05/06 14:02:19;;;;;;;12.63;11.33;;;;;;;;;;5092931;28;20454;-70
2022/05/06 14:04:48;;;;;;;12.50;11.20;;;;;;;;;;5092970;28;20936;-71
2022/05/06 14:07:15;;;;;;;12.17;10.87;;;;;;;;;;5094188;28;20455;-71
2022/05/06 14:09:42;;;;;;;12.77;11.47;;;;;;;;;;5097379;28;20474;-70
2022/05/06 14:12:10;;;;;;;13.40;12.10;;;;;;;;;;5097259;28;20527;-71
2022/05/06 14:14:37;;;;;;;12.23;10.90;;;;;;;;;;5096975;28;20848;-71
2022/05/06 14:17:04;;;;;;;13.37;11.50;;;;;;;;;;5097213;28;20447;-71
2022/05/06 14:19:31;;;;;;;13.57;11.80;;;;;;;;;;5097026;28;20467;-71
2022/05/06 14:22:00;;;;;;;12.97;11.57;;;;;;;;;;5096835;28;20511;-70
2022/05/06 14:24:27;;;;;;;12.80;11.57;;;;;;;;;;5096775;28;20469;-71
2022/05/06 14:26:54;;;;;;;12.97;11.00;;;;;;;;;;5097070;28;20923;-71
2022/05/06 14:29:21;;;;;;;11.93;10.77;;;;;;;;;;5096789;28;20470;-71
2022/05/06 14:31:48;;;;;;;11.97;10.60;;;;;;;;;;5096579;28;20452;-71
2022/05/06 14:34:16;;;;;;;12.17;10.87;;;;;;;;;;5096724;28;20457;-71
2022/05/06 14:36:43;;;;;;;13.00;11.70;;;;;;;;;;5096870;28;20451;-71
2022/05/06 14:39:11;;;;;;;13.77;11.33;;;;;;;;;;5096392;28;20479;-71
2022/05/06 14:41:38;;;;;;;13.97;11.27;;;;;;;;;;5096512;28;21041;-71
2022/05/06 14:44:05;;;;;;;13.37;11.97;;;;;;;;;;5096556;28;20825;-71
2022/05/06 14:46:33;;;;;;;12.33;11.10;;;;;;;;;;5096344;28;20458;-71
2022/05/06 14:49:00;;;;;;;19.00;11.90;;;;;;;;;;5096149;28;20481;-71
2022/05/06 14:51:27;;;;;;;13.53;12.13;;;;;;;;;;5096554;28;20962;-71
2022/05/06 14:53:54;;;;;;;13.63;11.90;;;;;;;;;;5096454;28;20451;-71
2022/05/06 14:56:23;;;;;;;12.80;11.17;;;;;;;;;;5096403;28;20455;-71
2022/05/06 14:58:50;;;;;;;12.70;11.40;;;;;;;;;;5096103;28;20464;-71
2022/05/06 15:01:17;;;;;;;15.47;11.63;;;;;;;;;;5095932;28;20481;-71
2022/05/06 15:03:44;;;;;;;15.93;11.30;;;;;;;;;;5096341;28;20691;-71
2022/05/06 15:06:11;;;;;;;12.93;11.60;;;;;;;;;;5096245;28;20450;-71
2022/05/06 15:08:39;;;;;;;13.10;11.80;;;;;;;;;;5095943;28;20461;-71
2022/05/06 15:11:06;;;;;;;13.93;12.13;;;;;;;;;;5096222;28;20450;-70
2022/05/06 15:13:34;;;;;;;12.57;11.27;;;;;;;;;;5095812;28;20455;-70
2022/05/06 15:16:02;;;;;;;13.77;12.40;;;;;;;;;;5096016;28;20821;-71